Jacksonville, FL

8:54 PM EST on February 06, 2016 (GMT -0500)
K4PAD - Oakleaf | | Change Station
CLOSE
Current Station
Personal Weather Station
Location: Jacksonville, FL
Elevation: 85 ft
Nearby Weather Stations

Elev 85 ft 30.21 °N, 81.82 °W | Updated 154 days ago

Rain
Rain
44 °F
Feels Like 39 °F
N
11
Wind Variable Wind from NNW
Gusts 20 mph

Today
High -- | Low -- °F
--% Chance of Precip.
Yesterday
High -- | Low -- °F
Precip. -- in
Pressure 30.11 in
Visibility 2.0 miles
Clouds Overcast 600 ft
Windchill 39 °F
Dew Point 43 °F
Humidity 98%
Rainfall in
Snow Depth Not available.
7:14 AM 6:08 PM
Waning Crescent, 3% visible
METAR KVQQ 070150Z 36015KT 2SM -RA OVC006 07/06 A3011
Pressure 30.11 in
Visibility 2.0 miles
Clouds Overcast 600 ft
Windchill 39 °F
Dew Point 43 °F
Humidity 98%
Rainfall in
Snow Depth Not available.
7:14 AM 6:08 PM
Waning Crescent, 3% visible
METAR KVQQ 070150Z 36015KT 2SM -RA OVC006 07/06 A3011

10-Day Weather Forecast

Almanac

Astronomy

Feb. 06, 2016 Rise Set
Actual Time
Civil Twilight
Nautical Twilight
Astronomical Twilight
Moon
Length of Visible Light
Length of Day
Tomorrow will be .
, % of the Moon is Illuminated

Today's Extremes

State Highs State Lows

Community

WunderPhotos

Upload Photos

1,891,123 photos uploaded!

WunderBlog® & News

Nearby

Air Quality

  Air Quality AQ Index Pollutant
Not available.

Snow Depth

Station Depth Elevation

Earthquake Activity

City Distance Mag. Time & Date
Minimum magnitude displayed is 2.5.

Coastal Water Temperatures

Place Temperature

Stations

Nearby Weather Stations

Station Location Temp. Windchill Dew Point Humidity Wind Precip. Elev Updated Type
                   

Watches & Warnings

There are currently no watches in effect.